Saturday, October 21, 2017, 3:35 PM EDT
Back to Local

KMHT, Manchester Airport

Location: Manchester, NH, United States Lat: 42.933
Local Time: 3:35 PM EDT (19:35 GMT) Lon: -71.433
Time Zone: US/Eastern Elev: 232 ft

Show me the last for .
Show Decoded

2017-10-21 14:53 METAR KMHT 211853Z VRB06KT 10SM SCT250 25/04 A3022 RMK AO2 SLP246 T02500044 =
2017-10-21 13:53 METAR KMHT 211753Z VRB05KT 10SM CLR 24/06 A3022 RMK AO2 SLP247 T02390056 10239
                 20061 58014 =
2017-10-21 12:53 METAR KMHT 211653Z 20003KT 10SM CLR 22/05 A3024 RMK AO2 SLP253 T02170050 =
2017-10-21 11:53 METAR KMHT 211553Z 00000KT 10SM CLR 20/04 A3026 RMK AO2 SLP258 T02000039 =
2017-10-21 10:53 METAR KMHT 211453Z 00000KT 10SM CLR 17/04 A3027 RMK AO2 SLP262 T01720044 50007 =
2017-10-21 09:53 METAR KMHT 211353Z 00000KT 10SM CLR 13/04 A3027 RMK AO2 SLP263 T01330039 =
2017-10-21 08:53 METAR KMHT 211253Z 00000KT 10SM CLR 09/06 A3026 RMK AO2 SLP260 T00940056 =
2017-10-21 07:53 METAR KMHT 211153Z 00000KT 10SM FEW250 06/04 A3024 RMK AO2 SLP255 T00610039
                 10094 20061 53010 =
2017-10-21 06:53 METAR KMHT 211053Z 00000KT 10SM FEW250 07/04 A3023 RMK AO2 SLP250 T00670039 =
2017-10-21 05:53 METAR KMHT 210953Z 00000KT 10SM BKN250 07/04 A3022 RMK AO2 SLP247 T00670039 =
2017-10-21 04:53 METAR KMHT 210853Z 00000KT 10SM SCT250 08/04 A3021 RMK AO2 SLP244 T00780039
                 51012 =
2017-10-21 03:53 METAR KMHT 210753Z 00000KT 10SM BKN250 07/04 A3020 RMK AO2 SLP240 T00720044 =
2017-10-21 02:53 METAR KMHT 210653Z 00000KT 10SM BKN250 08/04 A3019 RMK AO2 SLP236 T00830039 =
2017-10-21 01:53 METAR KMHT 210553Z 00000KT 10SM BKN250 09/04 A3018 RMK AO2 SLP231 T00890039
                 10167 20089 51013 =
2017-10-21 00:53 METAR KMHT 210453Z 00000KT 10SM BKN250 11/04 A3017 RMK AO2 SLP228 T01060039
                 402170100 =
2017-10-20 23:53 METAR KMHT 210353Z 00000KT 10SM BKN250 11/04 A3015 RMK AO2 SLP222 T01110039 =
2017-10-20 22:53 METAR KMHT 210253Z 00000KT 10SM FEW250 11/04 A3014 RMK AO2 SLP219 T01110044
                 51023 =
2017-10-20 21:53 METAR KMHT 210153Z 31005KT 10SM SCT250 15/01 A3011 RMK AO2 SLP210 T01500011 =
2017-10-20 20:53 METAR KMHT 210053Z 00000KT 10SM CLR 14/02 A3009 RMK AO2 SLP203 T01440017 =
2017-10-20 19:53 METAR KMHT 202353Z 02004KT 10SM CLR 17/01 A3007 RMK AO2 SLP195 T01670006 10217
                 20167 51022 =
2017-10-20 18:53 METAR KMHT 202253Z 28005KT 10SM CLR 18/01 A3005 RMK AO2 SLP189 T01780006 =
2017-10-20 17:53 METAR KMHT 202153Z 31008KT 10SM CLR 19/00 A3002 RMK AO2 SLP179 T01940000 =
2017-10-20 16:53 METAR KMHT 202053Z 31011KT 10SM CLR 21/M01 A3000 RMK AO2 SLP171 T02061006 53003
                 =
2017-10-20 15:53 METAR KMHT 201953Z 32013G21KT 10SM CLR 21/M01 A3000 RMK AO2 SLP170 T02111006 =

Support USWX by starting your Amazon purchase here.